Time;durP1;ratioP1;P1;durP2;ratioP2;P2;SDS_P1;SDS_P2;PMS_P1;PMS_P2;Temp;Humidity;BMP_temperature;BMP_pressure;BME280_temperature;BME280_humidity;BME280_pressure;Samples;Min_cycle;Max_cycle;Signal;HPM_P1;HPM_P2
2023/02/08 05:02:35;;;;;;;8.02;4.03;;;-2.60;99.90;;;;;;4955973;23;20245;-70
2023/02/08 05:05:01;;;;;;;4.65;4.35;;;-2.60;99.90;;;;;;4935386;29;20214;-69
2023/02/08 05:07:28;;;;;;;4.07;3.80;;;-2.60;99.90;;;;;;4928911;29;20224;-69
2023/02/08 05:09:55;;;;;;;1.55;1.45;;;-2.60;99.90;;;;;;4932512;29;20230;-69
2023/02/08 05:12:21;;;;;;;3.78;2.75;;;-2.60;99.90;;;;;;4932136;29;20295;-69
2023/02/08 05:14:48;;;;;;;2.78;2.65;;;-2.70;99.90;;;;;;4930686;29;20295;-72
2023/02/08 05:17:15;;;;;;;11.82;5.85;;;-2.70;99.90;;;;;;4928738;29;20234;-71
2023/02/08 05:19:43;;;;;;;2.35;2.03;;;-2.70;99.90;;;;;;4924040;29;20222;-69
2023/02/08 05:22:10;;;;;;;5.07;4.63;;;-2.70;99.90;;;;;;4929626;29;20234;-68
2023/02/08 05:24:36;;;;;;;1.25;1.25;;;-2.70;99.90;;;;;;4925476;29;20549;-69
2023/02/08 05:27:03;;;;;;;3.60;3.50;;;-2.70;99.90;;;;;;4923833;29;20220;-69
2023/02/08 05:29:30;;;;;;;0.77;0.77;;;-2.70;99.90;;;;;;4923258;29;20234;-68
2023/02/08 05:31:57;;;;;;;2.33;2.22;;;-2.70;99.90;;;;;;4926574;29;20250;-68
2023/02/08 05:34:23;;;;;;;4.00;3.70;;;-2.70;99.90;;;;;;4918013;29;20217;-71
2023/02/08 05:36:51;;;;;;;4.90;4.47;;;-2.70;99.90;;;;;;4916726;29;20244;-70
2023/02/08 05:39:18;;;;;;;2.13;2.10;;;-2.60;99.90;;;;;;4911510;29;20325;-70
2023/02/08 05:41:45;;;;;;;17.92;4.78;;;-2.60;99.90;;;;;;4912050;29;20273;-68
2023/02/08 05:44:11;;;;;;;5.50;3.95;;;-2.60;99.90;;;;;;4917283;29;20215;-72
2023/02/08 05:46:38;;;;;;;3.55;3.00;;;-2.60;99.90;;;;;;4917963;29;20211;-69
2023/02/08 05:49:05;;;;;;;8.98;4.63;;;-2.60;99.90;;;;;;4917377;29;20241;-71
2023/02/08 05:51:32;;;;;;;4.82;3.83;;;-2.60;99.90;;;;;;4913016;29;20239;-71
2023/02/08 05:54:00;;;;;;;3.83;3.58;;;-2.60;99.90;;;;;;4911194;29;20306;-69
2023/02/08 05:56:27;;;;;;;2.78;2.72;;;-2.60;99.90;;;;;;4917596;29;20214;-68
2023/02/08 05:58:54;;;;;;;5.57;3.05;;;-2.60;99.90;;;;;;4917348;29;20215;-69
2023/02/08 06:01:22;;;;;;;2.92;2.60;;;-2.60;99.90;;;;;;4916557;29;20238;-69
2023/02/08 06:03:48;;;;;;;6.15;5.65;;;-2.70;99.90;;;;;;4916126;29;20221;-70
2023/02/08 06:06:15;;;;;;;5.72;3.67;;;-2.70;99.90;;;;;;4917088;29;20213;-68
2023/02/08 06:08:42;;;;;;;1.77;1.67;;;-2.60;99.90;;;;;;4918334;29;20234;-68
2023/02/08 06:11:10;;;;;;;4.05;3.83;;;-2.60;99.90;;;;;;4915009;29;20890;-71
2023/02/08 06:13:37;;;;;;;3.25;3.00;;;-2.70;99.90;;;;;;4916661;29;20210;-72
2023/02/08 06:16:05;;;;;;;5.30;5.00;;;-2.70;99.90;;;;;;4916341;29;20222;-68
2023/02/08 06:18:32;;;;;;;2.55;2.40;;;-2.70;99.90;;;;;;4911788;29;20236;-68
2023/02/08 06:20:58;;;;;;;7.82;7.15;;;-2.70;99.90;;;;;;4917054;29;20234;-72
2023/02/08 06:23:25;;;;;;;4.25;4.15;;;-2.80;99.90;;;;;;4915453;29;20221;-70
2023/02/08 06:25:52;;;;;;;10.25;5.32;;;-2.80;99.90;;;;;;4915825;29;20211;-71
2023/02/08 06:28:20;;;;;;;5.35;2.05;;;-2.80;99.90;;;;;;4913198;29;20257;-72
2023/02/08 06:30:49;;;;;;;16.15;2.00;;;-2.80;99.90;;;;;;4916968;29;20256;-72
2023/02/08 06:33:16;;;;;;;1.92;1.92;;;-2.80;99.90;;;;;;4916262;29;20203;-70
2023/02/08 06:35:44;;;;;;;5.70;3.70;;;-2.80;99.90;;;;;;4917302;29;20241;-69
2023/02/08 06:38:11;;;;;;;6.53;4.32;;;-2.80;99.90;;;;;;4915540;29;20579;-72
2023/02/08 06:40:38;;;;;;;3.75;3.55;;;-2.80;99.90;;;;;;4916012;29;20231;-69
2023/02/08 06:43:04;;;;;;;4.20;3.83;;;-2.80;99.90;;;;;;4915850;29;20214;-70
2023/02/08 06:45:32;;;;;;;3.00;2.83;;;-2.90;99.90;;;;;;4916139;29;20250;-70
2023/02/08 06:47:59;;;;;;;4.60;1.77;;;-2.90;99.90;;;;;;4916264;29;20603;-69
2023/02/08 06:50:26;;;;;;;7.47;5.68;;;-2.90;99.90;;;;;;4915532;29;20236;-69
2023/02/08 06:52:53;;;;;;;7.47;6.85;;;-2.90;99.90;;;;;;4915135;29;20211;-69
2023/02/08 06:55:19;;;;;;;2.30;2.30;;;-2.90;99.90;;;;;;4912980;29;20253;-70
2023/02/08 06:57:46;;;;;;;2.47;2.35;;;-2.80;99.90;;;;;;4914707;29;20224;-69
2023/02/08 07:00:14;;;;;;;8.90;3.83;;;-2.80;99.90;;;;;;4915002;29;20217;-69
2023/02/08 07:02:42;;;;;;;2.83;2.72;;;-2.80;99.90;;;;;;4915152;29;20218;-74
2023/02/08 07:05:09;;;;;;;5.75;5.32;;;-2.90;99.90;;;;;;4916363;29;20199;-70
2023/02/08 07:07:35;;;;;;;2.80;2.80;;;-2.90;99.90;;;;;;4914489;29;20218;-69
2023/02/08 07:10:02;;;;;;;7.07;6.53;;;-2.90;99.90;;;;;;4915119;29;20298;-70
2023/02/08 07:12:29;;;;;;;6.68;4.75;;;-2.90;99.90;;;;;;4918034;29;20227;-69
2023/02/08 07:14:55;;;;;;;3.65;2.83;;;-2.90;99.90;;;;;;4924088;29;20218;-69
2023/02/08 07:17:22;;;;;;;17.52;4.07;;;-2.90;99.90;;;;;;4921886;29;20209;-72
2023/02/08 07:19:50;;;;;;;1.40;1.30;;;-2.80;99.90;;;;;;4915276;29;20231;-69
2023/02/08 07:22:17;;;;;;;3.53;2.40;;;-2.80;99.90;;;;;;4916828;29;20306;-69
2023/02/08 07:24:44;;;;;;;6.20;5.75;;;-2.80;99.90;;;;;;4916562;29;20215;-69
2023/02/08 07:27:13;;;;;;;3.53;3.33;;;-2.80;99.90;;;;;;4917852;29;20210;-72
2023/02/08 07:29:40;;;;;;;1.90;1.88;;;-2.80;99.90;;;;;;4914589;29;20238;-70
2023/02/08 07:32:08;;;;;;;8.88;3.65;;;-2.70;99.90;;;;;;4916082;29;20309;-71
2023/02/08 07:34:36;;;;;;;4.18;3.75;;;-2.70;99.90;;;;;;4909730;29;20214;-71
2023/02/08 07:37:05;;;;;;;15.05;5.35;;;-2.70;99.90;;;;;;4914797;29;20583;-69
2023/02/08 07:39:32;;;;;;;6.22;4.18;;;-2.60;99.90;;;;;;4915561;29;20217;-70
2023/02/08 07:41:59;;;;;;;5.88;2.75;;;-2.60;99.90;;;;;;4915226;29;20581;-70
2023/02/08 07:44:26;;;;;;;2.72;2.10;;;-2.60;99.90;;;;;;4915504;29;20214;-68
2023/02/08 07:46:52;;;;;;;3.60;3.35;;;-2.50;99.90;;;;;;4914867;29;20224;-68
2023/02/08 07:49:19;;;;;;;11.82;6.80;;;-2.50;99.90;;;;;;4910934;29;20583;-69
2023/02/08 07:51:46;;;;;;;8.68;5.70;;;-2.50;99.90;;;;;;4914871;29;20664;-68
2023/02/08 07:54:14;;;;;;;5.18;3.45;;;-2.40;99.90;;;;;;4913993;29;20211;-69
2023/02/08 07:56:40;;;;;;;3.47;3.40;;;-2.40;99.90;;;;;;4914928;29;20308;-68
2023/02/08 07:59:07;;;;;;;9.48;6.45;;;-2.40;99.90;;;;;;4916342;29;20204;-70
2023/02/08 08:01:34;;;;;;;7.13;4.50;;;-2.30;99.90;;;;;;4913223;29;20238;-70
2023/02/08 08:04:01;;;;;;;2.25;2.25;;;-2.30;99.90;;;;;;4906673;29;20212;-69
2023/02/08 08:06:27;;;;;;;7.75;7.00;;;-2.30;99.90;;;;;;4912131;29;20676;-70
2023/02/08 08:08:54;;;;;;;6.00;5.43;;;-2.20;99.90;;;;;;4913729;29;20232;-69
2023/02/08 08:11:22;;;;;;;17.88;8.35;;;-2.10;99.90;;;;;;4916023;29;20223;-69
2023/02/08 08:13:49;;;;;;;6.60;5.53;;;-2.10;99.90;;;;;;4915491;29;20219;-68
2023/02/08 08:16:16;;;;;;;6.07;5.47;;;-2.00;99.90;;;;;;4908126;29;20307;-68
2023/02/08 08:18:43;;;;;;;8.65;7.90;;;-1.90;99.90;;;;;;4909750;29;20791;-69
2023/02/08 08:21:10;;;;;;;7.05;6.43;;;-1.90;99.90;;;;;;4908911;29;20235;-70
2023/02/08 08:23:37;;;;;;;8.05;7.35;;;-1.80;99.90;;;;;;4909109;29;20216;-69
2023/02/08 08:26:08;;;;;;;6.93;6.60;;;-1.70;99.90;;;;;;4914885;29;20213;-69
2023/02/08 08:28:37;;;;;;;5.25;4.78;;;-1.60;99.90;;;;;;4913570;29;20223;-69
2023/02/08 08:31:08;;;;;;;5.75;5.32;;;-1.60;99.90;;;;;;4904563;29;20234;-69
2023/02/08 08:33:35;;;;;;;4.32;3.95;;;-1.50;99.90;;;;;;4914170;29;20227;-68
2023/02/08 08:36:01;;;;;;;5.13;4.93;;;-1.50;99.90;;;;;;4914511;29;20212;-71
2023/02/08 08:38:28;;;;;;;7.82;7.43;;;-1.40;99.90;;;;;;4911386;29;20209;-69
2023/02/08 08:40:55;;;;;;;3.33;3.20;;;-1.40;99.90;;;;;;4914271;29;20716;-69
2023/02/08 08:43:22;;;;;;;6.25;5.65;;;-1.30;99.90;;;;;;4913378;29;20214;-68
2023/02/08 08:45:50;;;;;;;7.85;7.20;;;-1.30;99.90;;;;;;4914587;29;20215;-70
2023/02/08 08:48:16;;;;;;;4.95;3.85;;;-1.20;99.90;;;;;;4911859;29;20212;-69
2023/02/08 08:50:43;;;;;;;6.43;5.97;;;-1.10;99.90;;;;;;4914026;29;20231;-68
2023/02/08 08:53:10;;;;;;;4.68;2.55;;;-1.10;99.90;;;;;;4911495;29;20604;-68
2023/02/08 08:55:36;;;;;;;7.25;6.07;;;-0.90;99.90;;;;;;4913940;29;20224;-70
2023/02/08 08:58:03;;;;;;;3.28;2.22;;;-0.90;99.90;;;;;;4911762;29;20658;-68
2023/02/08 09:00:30;;;;;;;4.15;3.88;;;-0.80;99.90;;;;;;4912640;29;20216;-69
2023/02/08 09:02:58;;;;;;;7.32;6.63;;;-0.40;99.90;;;;;;4912131;29;20231;-68
2023/02/08 09:05:25;;;;;;;3.47;3.38;;;-0.20;99.90;;;;;;4915029;29;20300;-69
2023/02/08 09:07:51;;;;;;;3.95;3.65;;;0.00;99.90;;;;;;4913321;29;20216;-68
2023/02/08 09:10:18;;;;;;;4.53;3.30;;;0.10;99.90;;;;;;4911506;29;20587;-67
2023/02/08 09:12:45;;;;;;;4.25;4.03;;;0.20;99.90;;;;;;4910238;29;20242;-69
2023/02/08 09:15:12;;;;;;;8.02;6.22;;;0.20;99.90;;;;;;4912954;29;20275;-68
2023/02/08 09:17:38;;;;;;;20.92;6.93;;;0.30;99.90;;;;;;4913807;29;20223;-68
2023/02/08 09:20:07;;;;;;;10.48;7.32;;;0.20;99.90;;;;;;4915717;29;20205;-69
2023/02/08 09:22:34;;;;;;;10.95;5.72;;;0.20;99.90;;;;;;4915030;29;20237;-68
2023/02/08 09:25:01;;;;;;;9.38;5.35;;;0.20;99.90;;;;;;4912869;29;20208;-70
2023/02/08 09:27:28;;;;;;;6.50;6.07;;;0.20;99.90;;;;;;4914549;29;20695;-70
2023/02/08 09:29:55;;;;;;;6.85;6.30;;;0.20;99.90;;;;;;4913636;29;20309;-67
2023/02/08 09:32:22;;;;;;;7.18;6.70;;;0.20;99.90;;;;;;4915165;29;20719;-68
2023/02/08 09:34:49;;;;;;;2.67;2.58;;;0.20;99.90;;;;;;4918784;29;20220;-71
2023/02/08 09:37:17;;;;;;;26.70;8.70;;;0.20;99.90;;;;;;4916451;29;20210;-70
2023/02/08 09:39:44;;;;;;;8.52;7.00;;;0.30;99.90;;;;;;4919106;29;20579;-71
2023/02/08 09:42:32;;;;;;;8.40;4.40;;;0.30;99.90;;;;;;4916957;29;20233;-69
2023/02/08 09:45:17;;;;;;;4.35;3.75;;;0.40;99.90;;;;;;4906382;29;20218;-68
2023/02/08 09:47:54;;;;;;;5.07;4.88;;;0.40;99.90;;;;;;4915239;29;20612;-68
2023/02/08 09:50:30;;;;;;;2.83;2.72;;;0.50;99.90;;;;;;4919471;29;20229;-69
2023/02/08 09:53:04;;;;;;;13.95;7.47;;;0.50;99.90;;;;;;4919245;29;20213;-68
2023/02/08 09:55:36;;;;;;;12.82;4.47;;;0.70;99.90;;;;;;4922639;29;20224;-69
2023/02/08 09:58:08;;;;;;;8.95;6.32;;;0.70;99.90;;;;;;4922068;29;20216;-68
2023/02/08 10:00:44;;;;;;;6.20;4.15;;;0.80;99.90;;;;;;4918141;29;20313;-72
2023/02/08 10:03:23;;;;;;;18.15;7.22;;;0.90;99.90;;;;;;4924927;29;20211;-71
2023/02/08 10:05:50;;;;;;;5.60;5.05;;;1.00;99.90;;;;;;4921699;29;20217;-68
2023/02/08 10:08:19;;;;;;;10.15;4.38;;;1.10;99.90;;;;;;4914172;29;20220;-68
2023/02/08 10:10:53;;;;;;;4.53;2.75;;;1.20;99.90;;;;;;4907310;29;20237;-69
2023/02/08 10:13:41;;;;;;;6.45;3.20;;;1.20;99.90;;;;;;4921809;29;20224;-68
2023/02/08 10:16:18;;;;;;;5.97;5.03;;;1.30;99.90;;;;;;4919892;29;20225;-68
2023/02/08 10:18:52;;;;;;;5.15;4.72;;;1.40;99.90;;;;;;4914954;29;20240;-71
2023/02/08 10:21:32;;;;;;;5.20;4.93;;;1.40;99.90;;;;;;4920074;29;20227;-71
2023/02/08 10:24:25;;;;;;;7.88;7.03;;;1.60;99.90;;;;;;4916193;29;20221;-69
2023/02/08 10:27:00;;;;;;;7.85;5.15;;;1.70;99.90;;;;;;4918013;29;20293;-69
2023/02/08 10:29:45;;;;;;;7.40;3.92;;;1.80;99.90;;;;;;4918723;29;20266;-70
2023/02/08 10:32:27;;;;;;;7.18;3.92;;;1.90;99.90;;;;;;4917497;29;20222;-71
2023/02/08 10:34:58;;;;;;;4.97;4.22;;;2.00;99.90;;;;;;4919500;29;20209;-69
2023/02/08 10:37:33;;;;;;;4.78;4.20;;;2.10;99.90;;;;;;4920127;29;20211;-70
2023/02/08 10:40:16;;;;;;;8.15;5.30;;;2.20;99.90;;;;;;4922321;29;20202;-68
2023/02/08 10:42:47;;;;;;;9.38;2.80;;;2.30;99.90;;;;;;4919692;29;20238;-68
2023/02/08 10:45:24;;;;;;;9.23;4.93;;;2.30;99.90;;;;;;4915819;29;20225;-68
2023/02/08 10:47:53;;;;;;;11.32;6.20;;;2.40;99.90;;;;;;4918237;29;20236;-71
2023/02/08 10:50:26;;;;;;;8.18;5.65;;;2.50;99.90;;;;;;4922116;29;20254;-71
2023/02/08 10:52:53;;;;;;;6.20;5.30;;;2.60;99.90;;;;;;4918151;29;20259;-70
2023/02/08 10:55:21;;;;;;;8.60;5.47;;;2.60;99.90;;;;;;4917015;29;20223;-70
2023/02/08 10:57:52;;;;;;;3.45;3.30;;;2.70;99.90;;;;;;4915920;29;20207;-69
2023/02/08 11:00:25;;;;;;;4.95;4.55;;;2.80;99.90;;;;;;4912005;29;20204;-69
2023/02/08 11:02:54;;;;;;;2.25;2.15;;;2.80;99.90;;;;;;4913435;29;20211;-70
2023/02/08 11:05:31;;;;;;;5.00;1.85;;;2.90;99.90;;;;;;4914831;29;20203;-68
2023/02/08 11:08:06;;;;;;;6.70;5.20;;;3.00;99.90;;;;;;4914351;29;20206;-70
2023/02/08 11:10:36;;;;;;;12.30;5.90;;;3.00;99.90;;;;;;4914338;29;20218;-68
2023/02/08 11:13:06;;;;;;;11.98;5.03;;;3.00;99.90;;;;;;4916561;29;20211;-69
2023/02/08 11:15:38;;;;;;;6.32;5.82;;;3.10;99.90;;;;;;4911777;29;20214;-69
2023/02/08 11:18:07;;;;;;;7.45;4.43;;;3.10;99.90;;;;;;4914666;29;20596;-67
2023/02/08 11:20:36;;;;;;;5.15;3.75;;;3.20;99.90;;;;;;4915941;29;20779;-70
2023/02/08 11:23:05;;;;;;;6.50;3.53;;;3.20;99.90;;;;;;4918258;29;20386;-72
2023/02/08 11:25:37;;;;;;;4.85;4.55;;;3.20;99.90;;;;;;4920606;29;20838;-71
2023/02/08 11:28:05;;;;;;;9.57;7.22;;;3.30;99.90;;;;;;4920434;29;20207;-71
2023/02/08 11:30:32;;;;;;;5.53;4.90;;;3.40;99.90;;;;;;4921576;29;20223;-71
2023/02/08 11:33:17;;;;;;;6.40;1.98;;;3.40;99.90;;;;;;4921927;29;20234;-71
2023/02/08 11:36:12;;;;;;;3.90;3.47;;;3.50;99.90;;;;;;4917065;29;20241;-70
2023/02/08 11:38:42;;;;;;;5.95;2.83;;;3.50;99.90;;;;;;4884269;29;20202;-69
2023/02/08 11:41:17;;;;;;;7.63;3.05;;;3.70;99.90;;;;;;4916636;29;20226;-73
2023/02/08 11:43:59;;;;;;;5.10;4.43;;;3.70;99.90;;;;;;4922967;29;20254;-70
2023/02/08 11:46:28;;;;;;;8.63;4.30;;;3.80;99.90;;;;;;4929690;29;20210;-72
2023/02/08 11:48:56;;;;;;;6.05;5.50;;;3.80;99.90;;;;;;4926124;29;20214;-69
2023/02/08 11:51:27;;;;;;;6.80;4.90;;;3.80;99.90;;;;;;4927180;29;20321;-70
2023/02/08 11:53:55;;;;;;;13.13;7.05;;;3.80;99.90;;;;;;4927973;29;20218;-70
2023/02/08 11:56:26;;;;;;;11.57;8.30;;;3.80;99.90;;;;;;4925470;29;20671;-70
2023/02/08 11:59:02;;;;;;;9.18;6.43;;;3.90;99.90;;;;;;4924818;29;20715;-71
2023/02/08 12:01:32;;;;;;;7.55;4.78;;;4.00;99.90;;;;;;4916972;29;20242;-71
2023/02/08 12:04:01;;;;;;;2.67;2.55;;;4.10;99.90;;;;;;4917909;29;20661;-70
2023/02/08 12:06:52;;;;;;;10.15;5.03;;;4.10;99.90;;;;;;4921395;29;20222;-70
2023/02/08 12:09:35;;;;;;;5.80;3.85;;;4.20;99.90;;;;;;4911706;29;20228;-70
2023/02/08 12:12:13;;;;;;;3.70;3.40;;;4.20;99.90;;;;;;4919891;29;20230;-69
2023/02/08 12:14:52;;;;;;;4.28;3.95;;;4.30;99.90;;;;;;4915681;29;20200;-70
2023/02/08 12:17:46;;;;;;;8.57;4.10;;;4.30;99.90;;;;;;4913734;29;20567;-70
2023/02/08 12:20:33;;;;;;;8.38;3.95;;;4.20;99.90;;;;;;4922098;29;20218;-71
2023/02/08 12:23:14;;;;;;;2.60;2.50;;;4.20;99.90;;;;;;4912549;29;20567;-70
2023/02/08 12:25:49;;;;;;;3.80;3.50;;;4.30;99.90;;;;;;4911460;29;20252;-72
2023/02/08 12:28:24;;;;;;;5.10;4.53;;;4.30;99.90;;;;;;4913951;29;20210;-71
2023/02/08 12:30:59;;;;;;;6.88;5.03;;;4.30;99.90;;;;;;4913409;29;20238;-71
2023/02/08 12:33:39;;;;;;;7.93;7.22;;;4.30;99.90;;;;;;4915628;29;20774;-72
2023/02/08 12:36:20;;;;;;;2.88;2.67;;;4.30;99.90;;;;;;4916678;29;20211;-70
2023/02/08 12:42:11;;;;;;;13.75;5.30;;;4.40;99.90;;;;;;4914748;29;20308;-69
2023/02/08 12:44:54;;;;;;;3.05;2.95;;;4.30;99.90;;;;;;4918228;29;20222;-69
2023/02/08 12:47:44;;;;;;;3.85;3.65;;;4.30;99.90;;;;;;4917143;29;20305;-70
2023/02/08 12:50:23;;;;;;;2.67;2.05;;;4.30;99.90;;;;;;4928335;29;20217;-72
2023/02/08 12:52:53;;;;;;;9.00;5.10;;;4.40;99.90;;;;;;4920280;29;20285;-71
2023/02/08 12:55:26;;;;;;;4.50;3.92;;;4.30;99.90;;;;;;4916491;29;20286;-71
2023/02/08 12:57:55;;;;;;;4.32;4.03;;;4.30;99.90;;;;;;4911788;29;20219;-71
2023/02/08 13:00:27;;;;;;;6.97;5.20;;;4.30;99.90;;;;;;4911959;29;20218;-69
2023/02/08 13:03:05;;;;;;;4.65;4.25;;;4.40;99.90;;;;;;4911838;29;20200;-70
2023/02/08 13:05:37;;;;;;;16.52;7.07;;;4.40;99.90;;;;;;4913999;29;20215;-69
2023/02/08 13:08:12;;;;;;;12.50;5.43;;;4.50;99.90;;;;;;4918801;29;20210;-70
2023/02/08 13:10:42;;;;;;;10.90;6.22;;;4.50;99.90;;;;;;4916992;29;20674;-69
2023/02/08 13:13:16;;;;;;;11.80;5.95;;;4.50;99.90;;;;;;4918258;29;20218;-69
2023/02/08 13:15:50;;;;;;;10.27;5.30;;;4.60;99.90;;;;;;4915463;29;20206;-71
2023/02/08 13:18:21;;;;;;;4.30;4.10;;;4.60;99.90;;;;;;4918431;29;20211;-71
2023/02/08 13:20:51;;;;;;;1.27;1.25;;;4.70;99.90;;;;;;4919161;29;20226;-71
2023/02/08 13:23:24;;;;;;;10.32;5.88;;;4.60;99.90;;;;;;4915779;29;20211;-70
2023/02/08 13:25:54;;;;;;;7.45;6.35;;;4.50;99.90;;;;;;4916182;29;20206;-71
2023/02/08 13:28:23;;;;;;;2.40;2.30;;;4.50;99.90;;;;;;4916833;29;20210;-72
2023/02/08 13:31:01;;;;;;;6.07;4.10;;;4.50;99.90;;;;;;4916898;29;20246;-71
2023/02/08 13:33:39;;;;;;;4.95;4.20;;;4.60;99.90;;;;;;4914706;29;20222;-71
2023/02/08 13:36:19;;;;;;;4.55;4.10;;;4.60;99.90;;;;;;4918187;29;20203;-71
2023/02/08 13:38:48;;;;;;;2.95;2.63;;;4.60;99.90;;;;;;4916943;29;20201;-68
2023/02/08 13:41:17;;;;;;;1.58;1.58;;;4.60;99.90;;;;;;4914774;29;20245;-70
2023/02/08 13:43:49;;;;;;;5.20;2.75;;;4.60;99.90;;;;;;4916202;29;20217;-70
2023/02/08 13:46:18;;;;;;;7.50;4.90;;;4.60;99.90;;;;;;4912374;29;20206;-69
2023/02/08 13:48:48;;;;;;;4.72;3.83;;;4.60;99.90;;;;;;4909990;29;20611;-70
2023/02/08 13:51:52;;;;;;;12.30;5.55;;;4.50;99.90;;;;;;4917043;29;20241;-70
2023/02/08 13:54:19;;;;;;;3.90;3.67;;;4.50;99.90;;;;;;4916207;29;20209;-69
2023/02/08 13:56:47;;;;;;;7.57;3.47;;;4.50;99.90;;;;;;4916873;29;20202;-69
2023/02/08 13:59:35;;;;;;;3.33;1.73;;;4.50;99.90;;;;;;4915774;29;20206;-69
2023/02/08 14:02:27;;;;;;;1.23;1.23;;;4.50;99.90;;;;;;4912820;29;20238;-69
2023/02/08 14:05:19;;;;;;;3.75;1.98;;;4.50;99.90;;;;;;4916093;29;20566;-71
2023/02/08 14:07:48;;;;;;;5.47;2.78;;;4.60;99.90;;;;;;4912459;29;20212;-71
2023/02/08 14:10:30;;;;;;;9.77;5.28;;;4.60;99.90;;;;;;4916935;29;20203;-71
2023/02/08 14:13:03;;;;;;;3.20;2.92;;;4.60;99.90;;;;;;4915814;29;20202;-69
2023/02/08 14:15:36;;;;;;;9.82;3.85;;;4.60;99.90;;;;;;4916619;29;20203;-68
2023/02/08 14:18:04;;;;;;;1.48;1.38;;;4.60;99.90;;;;;;4919301;29;20219;-69
2023/02/08 14:20:38;;;;;;;5.90;3.63;;;4.60;99.90;;;;;;4919859;29;20214;-70
2023/02/08 14:23:20;;;;;;;6.43;2.22;;;4.60;99.90;;;;;;4920274;29;20239;-70
2023/02/08 14:25:50;;;;;;;4.07;1.73;;;4.60;99.90;;;;;;4919376;29;20313;-71
2023/02/08 14:28:27;;;;;;;3.33;3.13;;;4.60;99.90;;;;;;4913625;29;20207;-69
2023/02/08 14:30:57;;;;;;;3.25;2.90;;;4.60;99.90;;;;;;4918808;29;20230;-69
2023/02/08 14:33:26;;;;;;;7.13;3.40;;;4.60;99.90;;;;;;4919273;29;20306;-70
2023/02/08 14:35:56;;;;;;;3.40;3.20;;;4.60;99.90;;;;;;4919909;29;20211;-68
2023/02/08 14:38:53;;;;;;;3.90;3.58;;;4.60;99.90;;;;;;4918856;29;20214;-68
2023/02/08 14:41:47;;;;;;;7.72;2.85;;;4.50;99.90;;;;;;4916965;29;20226;-71
2023/02/08 14:44:47;;;;;;;3.22;2.25;;;4.50;99.90;;;;;;4922128;29;20220;-71
2023/02/08 14:48:02;;;;;;;4.45;4.15;;;4.50;99.90;;;;;;4912507;29;20211;-69
2023/02/08 14:50:36;;;;;;;4.43;2.92;;;4.50;99.90;;;;;;4918744;29;20262;-70
2023/02/08 14:53:21;;;;;;;10.23;4.20;;;4.50;99.90;;;;;;4919621;29;20570;-69
2023/02/08 14:55:52;;;;;;;4.32;0.88;;;4.40;99.90;;;;;;4918467;29;20200;-68
2023/02/08 14:58:28;;;;;;;2.83;2.60;;;4.40;99.90;;;;;;4919372;29;20218;-70
2023/02/08 15:00:56;;;;;;;4.50;4.20;;;4.50;99.90;;;;;;4919061;29;20610;-70
2023/02/08 15:03:25;;;;;;;4.55;1.85;;;4.50;99.90;;;;;;4918927;29;20554;-70
2023/02/08 15:06:22;;;;;;;2.83;2.72;;;4.40;99.90;;;;;;4920022;29;20255;-69
2023/02/08 15:08:51;;;;;;;7.78;3.75;;;4.40;99.90;;;;;;4904487;29;20214;-69
2023/02/08 15:11:26;;;;;;;3.63;3.53;;;4.30;99.90;;;;;;4920456;29;20235;-70
2023/02/08 15:13:54;;;;;;;4.43;4.22;;;4.30;99.90;;;;;;4914639;29;20210;-69
2023/02/08 15:16:22;;;;;;;13.25;4.40;;;4.20;99.90;;;;;;4920104;29;20215;-69
2023/02/08 15:18:51;;;;;;;3.22;3.03;;;4.20;99.90;;;;;;4921173;29;20221;-70
2023/02/08 15:21:20;;;;;;;9.88;3.33;;;4.20;99.90;;;;;;4920556;29;20226;-69
2023/02/08 15:23:59;;;;;;;7.28;2.60;;;4.10;99.90;;;;;;4922805;29;20243;-69
2023/02/08 15:26:28;;;;;;;3.50;3.28;;;4.10;99.90;;;;;;4919683;29;20726;-70
2023/02/08 15:28:56;;;;;;;3.70;3.22;;;4.00;99.90;;;;;;4921373;29;20207;-69
2023/02/08 15:31:27;;;;;;;3.63;3.08;;;4.00;99.90;;;;;;4918284;29;20236;-70
2023/02/08 15:33:54;;;;;;;5.97;2.15;;;3.90;99.90;;;;;;4921897;29;20214;-69
2023/02/08 15:36:25;;;;;;;2.97;1.95;;;3.90;99.90;;;;;;4918059;29;20211;-70
2023/02/08 15:38:52;;;;;;;1.10;1.08;;;3.80;99.90;;;;;;4919345;29;20243;-70
2023/02/08 15:41:25;;;;;;;2.40;2.20;;;3.80;99.90;;;;;;4916720;29;20233;-70
2023/02/08 15:44:02;;;;;;;5.05;4.75;;;3.80;99.90;;;;;;4918147;29;20695;-70
2023/02/08 15:46:29;;;;;;;3.88;3.67;;;3.70;99.90;;;;;;4918107;29;20226;-71
2023/02/08 15:48:56;;;;;;;6.95;3.05;;;3.60;99.90;;;;;;4917864;29;20321;-70
2023/02/08 15:51:26;;;;;;;7.90;3.38;;;3.60;99.90;;;;;;4915361;29;20602;-69
2023/02/08 15:53:55;;;;;;;5.53;1.42;;;3.50;99.90;;;;;;4917708;29;20680;-70
2023/02/08 15:56:25;;;;;;;2.67;1.20;;;3.50;99.90;;;;;;4916914;29;20212;-70
2023/02/08 15:58:56;;;;;;;6.15;3.08;;;3.40;99.90;;;;;;4917878;29;20230;-70
2023/02/08 16:01:24;;;;;;;6.88;3.33;;;3.40;99.90;;;;;;4908942;29;20259;-69
2023/02/08 16:03:54;;;;;;;4.88;3.10;;;3.30;99.90;;;;;;4910940;29;20226;-70
2023/02/08 16:06:25;;;;;;;3.35;3.20;;;3.20;99.90;;;;;;4911572;29;20214;-70
2023/02/08 16:08:53;;;;;;;6.05;5.35;;;3.10;99.90;;;;;;4909495;29;20207;-70
2023/02/08 16:11:23;;;;;;;10.57;3.67;;;3.10;99.90;;;;;;4913762;29;20238;-68
2023/02/08 16:13:54;;;;;;;10.43;4.28;;;3.10;99.90;;;;;;4916251;29;20225;-72
2023/02/08 16:16:24;;;;;;;3.38;1.30;;;3.00;99.90;;;;;;4918063;29;20210;-71
2023/02/08 16:18:58;;;;;;;3.83;3.08;;;3.00;99.90;;;;;;4910809;29;20206;-68
2023/02/08 16:21:32;;;;;;;8.57;3.75;;;2.90;99.90;;;;;;4920562;29;20226;-70
2023/02/08 16:24:04;;;;;;;2.60;2.00;;;2.90;99.90;;;;;;4910305;29;20297;-70
2023/02/08 16:26:35;;;;;;;7.05;2.40;;;2.80;99.90;;;;;;4910378;29;20206;-71
2023/02/08 16:29:05;;;;;;;5.22;3.53;;;2.70;99.90;;;;;;4912692;29;20261;-69
2023/02/08 16:31:34;;;;;;;3.00;2.58;;;2.70;99.90;;;;;;4909149;29;20250;-70
2023/02/08 16:34:04;;;;;;;9.02;4.28;;;2.60;99.90;;;;;;4918011;29;20214;-70
2023/02/08 16:36:39;;;;;;;7.63;3.92;;;2.60;99.90;;;;;;4921883;29;20225;-71
2023/02/08 16:39:45;;;;;;;3.45;2.63;;;2.50;99.90;;;;;;4914873;29;20202;-70
2023/02/08 16:42:32;;;;;;;3.63;3.22;;;2.40;99.90;;;;;;4908386;29;20250;-70
2023/02/08 16:45:21;;;;;;;5.60;5.18;;;2.40;99.90;;;;;;4913473;29;20217;-70
2023/02/08 16:47:51;;;;;;;4.00;2.95;;;2.30;99.90;;;;;;4908187;29;20697;-68
2023/02/08 16:50:19;;;;;;;1.55;1.55;;;2.20;99.90;;;;;;4909331;29;20218;-70
2023/02/08 16:52:49;;;;;;;3.35;2.92;;;2.20;99.90;;;;;;4911120;29;20842;-70
2023/02/08 16:55:19;;;;;;;8.52;3.53;;;2.20;99.90;;;;;;4914388;29;20214;-69
2023/02/08 16:57:47;;;;;;;11.10;4.85;;;2.20;99.90;;;;;;4916993;29;20207;-69
2023/02/08 17:00:17;;;;;;;5.80;5.43;;;2.10;99.90;;;;;;4905415;29;20225;-69
2023/02/08 17:02:46;;;;;;;3.22;1.77;;;2.10;99.90;;;;;;4903256;29;20213;-70
2023/02/08 17:05:13;;;;;;;8.52;7.80;;;2.10;99.90;;;;;;4920209;29;20548;-71
2023/02/08 17:07:39;;;;;;;8.30;5.43;;;2.00;99.90;;;;;;4907375;29;20691;-69
2023/02/08 17:10:08;;;;;;;6.25;4.47;;;1.90;99.90;;;;;;4916654;29;20206;-72
2023/02/08 17:12:35;;;;;;;3.83;3.35;;;1.90;99.90;;;;;;4914112;29;20241;-70
2023/02/08 17:15:01;;;;;;;7.55;6.00;;;1.90;99.90;;;;;;4910366;29;20214;-69
2023/02/08 17:17:28;;;;;;;3.47;3.25;;;1.90;99.90;;;;;;4909525;29;20215;-67
2023/02/08 17:19:56;;;;;;;4.05;3.72;;;1.90;99.90;;;;;;4921152;29;20214;-71
2023/02/08 17:22:23;;;;;;;4.05;3.85;;;1.80;99.90;;;;;;4918139;29;20586;-68
2023/02/08 17:24:50;;;;;;;3.10;3.10;;;1.80;99.90;;;;;;4914462;29;20215;-71
2023/02/08 17:27:16;;;;;;;2.00;1.90;;;1.80;99.90;;;;;;4912741;29;20218;-70
2023/02/08 17:29:43;;;;;;;4.25;3.88;;;1.70;99.90;;;;;;4911587;29;20210;-70
2023/02/08 17:32:10;;;;;;;4.32;3.25;;;1.70;99.90;;;;;;4913413;29;20621;-69
2023/02/08 17:34:38;;;;;;;11.18;5.95;;;1.60;99.90;;;;;;4913262;29;20211;-70
2023/02/08 17:37:06;;;;;;;6.13;4.35;;;1.60;99.90;;;;;;4912982;29;20217;-67
2023/02/08 17:39:33;;;;;;;5.00;4.70;;;1.50;99.90;;;;;;4912043;29;20282;-69
2023/02/08 17:41:59;;;;;;;3.42;3.17;;;1.50;99.90;;;;;;4911244;29;20241;-68
2023/02/08 17:44:26;;;;;;;2.78;2.58;;;1.40;99.90;;;;;;4910988;29;20222;-70
2023/02/08 17:46:53;;;;;;;6.28;3.30;;;1.40;99.90;;;;;;4914310;29;20292;-71
2023/02/08 17:49:20;;;;;;;4.55;4.13;;;1.40;99.90;;;;;;4914682;29;20255;-70
2023/02/08 17:51:47;;;;;;;4.32;3.95;;;1.30;99.90;;;;;;4911136;29;20236;-69
2023/02/08 17:54:15;;;;;;;10.85;4.30;;;1.30;99.90;;;;;;4909770;29;20206;-69
2023/02/08 17:56:42;;;;;;;4.13;2.50;;;1.30;99.90;;;;;;4908682;29;20227;-71
2023/02/08 17:59:09;;;;;;;4.05;3.85;;;1.20;99.90;;;;;;4908503;29;20282;-68
2023/02/08 18:01:36;;;;;;;4.80;4.07;;;1.20;99.90;;;;;;4908651;29;20249;-69
2023/02/08 18:04:05;;;;;;;10.07;4.00;;;1.20;99.90;;;;;;4909121;29;20220;-69
2023/02/08 18:06:32;;;;;;;5.75;3.60;;;1.10;99.90;;;;;;4907043;29;20391;-71
2023/02/08 18:08:58;;;;;;;10.75;4.00;;;1.10;99.90;;;;;;4909290;29;20817;-70
2023/02/08 18:11:26;;;;;;;7.95;3.35;;;1.00;99.90;;;;;;4909962;29;20244;-70
2023/02/08 18:13:54;;;;;;;12.23;6.95;;;1.00;99.90;;;;;;4911041;29;20233;-71
2023/02/08 18:16:23;;;;;;;4.25;3.92;;;1.00;99.90;;;;;;4917970;29;20206;-71
2023/02/08 18:18:49;;;;;;;3.83;2.22;;;0.90;99.90;;;;;;4916071;29;20221;-71